createdAt,value
2023-03-14T00:00:40.109Z,0.52
2023-03-14T00:04:40.240Z,0.51
2023-03-14T00:08:40.383Z,0.52
2023-03-14T00:12:40.561Z,0.52
2023-03-14T00:16:40.688Z,0.51
2023-03-14T00:20:40.856Z,0.51
2023-03-14T00:24:41.000Z,0.52
2023-03-14T00:28:41.182Z,0.52
2023-03-14T00:32:41.368Z,0.51
2023-03-14T00:36:41.507Z,0.51
2023-03-14T00:40:41.635Z,0.52
2023-03-14T00:44:41.851Z,0.50
2023-03-14T00:48:42.014Z,0.51
2023-03-14T00:52:42.161Z,0.52
2023-03-14T00:56:42.330Z,0.51
2023-03-14T01:00:42.473Z,0.51
2023-03-14T01:04:42.652Z,0.50
2023-03-14T01:08:42.825Z,0.51
2023-03-14T01:12:43.023Z,0.51
2023-03-14T01:16:43.180Z,0.50
2023-03-14T01:20:43.354Z,0.50
2023-03-14T01:24:43.546Z,0.51
2023-03-14T01:28:43.721Z,0.52
2023-03-14T01:32:43.907Z,0.51
2023-03-14T01:36:44.086Z,0.50
2023-03-14T01:40:44.260Z,0.52
2023-03-14T01:44:44.441Z,0.51
2023-03-14T01:48:44.736Z,0.51
2023-03-14T01:52:44.883Z,0.53
2023-03-14T01:56:45.061Z,0.52
2023-03-14T02:00:45.269Z,0.52
2023-03-14T02:04:45.472Z,0.52
2023-03-14T02:08:45.683Z,0.51
2023-03-14T02:12:45.853Z,0.51
2023-03-14T02:16:46.176Z,0.51
2023-03-14T02:20:46.286Z,0.51
2023-03-14T02:24:46.270Z,0.51
2023-03-14T02:28:46.233Z,0.51
2023-03-14T02:32:46.522Z,0.52
2023-03-14T02:36:46.185Z,0.52
2023-03-14T02:40:46.114Z,0.51
2023-03-14T02:44:46.067Z,0.50
2023-03-14T02:48:46.052Z,0.50
2023-03-14T02:52:46.007Z,0.51
2023-03-14T02:56:45.975Z,0.51
2023-03-14T03:00:46.006Z,0.52
2023-03-14T03:04:45.973Z,0.52
2023-03-14T03:08:45.946Z,0.53
2023-03-14T03:12:45.884Z,0.53
2023-03-14T03:16:45.881Z,0.52
2023-03-14T03:20:45.802Z,0.51
2023-03-14T03:24:45.800Z,0.52
2023-03-14T03:28:45.791Z,0.51
2023-03-14T03:32:45.728Z,0.51
2023-03-14T03:36:45.686Z,0.53
2023-03-14T03:40:45.712Z,0.51
2023-03-14T03:44:45.684Z,0.51
2023-03-14T03:48:45.654Z,0.51
2023-03-14T03:52:45.600Z,0.50
2023-03-14T03:56:45.575Z,0.50
2023-03-14T04:00:45.537Z,0.50
2023-03-14T04:04:45.517Z,0.55
2023-03-14T04:08:45.447Z,0.57
2023-03-14T04:12:45.439Z,0.58
2023-03-14T04:16:45.407Z,0.59
2023-03-14T04:20:45.358Z,0.58
2023-03-14T04:24:45.384Z,0.54
2023-03-14T04:28:45.318Z,0.53
2023-03-14T04:32:45.275Z,0.55
2023-03-14T04:36:45.216Z,0.54
2023-03-14T04:40:45.165Z,0.54
2023-03-14T04:44:45.136Z,0.58
2023-03-14T04:48:45.070Z,0.64
2023-03-14T04:52:45.055Z,0.63
2023-03-14T04:56:44.996Z,0.65
2023-03-14T05:00:44.983Z,0.67
2023-03-14T05:04:44.950Z,0.65
2023-03-14T05:08:44.925Z,0.69
2023-03-14T05:12:44.853Z,0.70
2023-03-14T05:16:44.937Z,0.71
2023-03-14T05:20:44.791Z,0.70
2023-03-14T05:24:44.740Z,0.72
2023-03-14T05:28:44.796Z,0.73
2023-03-14T05:32:44.844Z,0.73
2023-03-14T05:36:44.819Z,0.71
2023-03-14T05:40:44.826Z,0.71
2023-03-14T05:44:44.811Z,0.73
2023-03-14T05:48:44.821Z,0.72
2023-03-14T05:52:44.769Z,0.73
2023-03-14T05:56:44.773Z,0.72
2023-03-14T06:00:44.742Z,0.72
2023-03-14T06:04:44.722Z,0.72
2023-03-14T06:08:44.713Z,0.72
2023-03-14T06:12:44.639Z,0.73
2023-03-14T06:16:44.631Z,0.73
2023-03-14T06:20:44.610Z,0.73
2023-03-14T06:24:44.594Z,0.71
2023-03-14T06:28:44.581Z,0.72
2023-03-14T06:32:44.580Z,0.71
2023-03-14T06:36:45.080Z,0.71
2023-03-14T06:40:45.007Z,0.79
2023-03-14T06:44:44.511Z,0.91
2023-03-14T06:48:44.994Z,1.02
2023-03-14T06:52:45.035Z,1.11
2023-03-14T06:56:44.994Z,1.32
2023-03-14T07:00:44.779Z,1.58
2023-03-14T07:04:45.022Z,1.84
2023-03-14T07:08:45.019Z,2.19
2023-03-14T07:12:44.679Z,2.49
2023-03-14T07:16:44.667Z,2.77
2023-03-14T07:20:44.597Z,3.23
2023-03-14T07:24:44.611Z,3.62
2023-03-14T07:28:44.574Z,3.96
2023-03-14T07:32:44.560Z,4.24
2023-03-14T07:36:44.498Z,4.53
2023-03-14T07:40:44.470Z,4.69
2023-03-14T07:44:44.391Z,4.83
2023-03-14T07:48:44.572Z,5.26
2023-03-14T07:52:44.516Z,5.22
2023-03-14T07:56:44.330Z,5.29
2023-03-14T08:00:44.294Z,5.37
2023-03-14T08:04:44.257Z,5.58
2023-03-14T08:08:45.037Z,5.68
2023-03-14T08:12:44.308Z,5.81
2023-03-14T08:16:44.290Z,6.09
2023-03-14T08:20:44.227Z,6.15
2023-03-14T08:24:44.210Z,6.32
2023-03-14T08:28:44.202Z,6.42
2023-03-14T08:32:44.117Z,6.46
2023-03-14T08:36:44.092Z,6.47
2023-03-14T08:40:44.591Z,6.42
2023-03-14T08:44:44.194Z,6.49
2023-03-14T08:48:43.960Z,4.65
2023-03-14T08:52:44.023Z,2.99
2023-03-14T08:56:44.056Z,4.35
2023-03-14T09:00:43.933Z,4.34
2023-03-14T09:04:44.070Z,4.98
2023-03-14T09:08:44.302Z,7.07
2023-03-14T09:12:44.409Z,8.09
2023-03-14T09:16:44.588Z,7.55
2023-03-14T09:20:44.520Z,7.27
2023-03-14T09:24:44.572Z,7.09
2023-03-14T09:28:44.527Z,7.61
2023-03-14T09:32:44.617Z,8.19
2023-03-14T09:36:44.573Z,7.52
2023-03-14T09:40:44.584Z,7.75
2023-03-14T09:44:44.577Z,7.67
2023-03-14T09:48:44.624Z,8.13
2023-03-14T09:52:44.586Z,7.80
2023-03-14T09:56:44.498Z,7.48
2023-03-14T10:00:44.574Z,7.19
2023-03-14T10:04:44.807Z,6.93
2023-03-14T10:08:44.770Z,6.65
2023-03-14T10:12:44.958Z,6.19
2023-03-14T10:16:45.112Z,5.75
2023-03-14T10:20:45.165Z,5.31
2023-03-14T10:24:45.262Z,5.13
2023-03-14T10:28:45.561Z,4.84
2023-03-14T10:32:45.570Z,4.62
2023-03-14T10:36:45.547Z,4.25
2023-03-14T10:40:46.096Z,4.18
2023-03-14T10:44:46.074Z,3.04
2023-03-14T10:48:46.087Z,1.69
2023-03-14T10:53:01.425Z,1.30
2023-03-14T10:56:47.098Z,1.02
2023-03-14T11:00:45.778Z,0.84
2023-03-14T11:04:46.226Z,0.75
2023-03-14T11:08:45.913Z,0.61
2023-03-14T11:12:46.025Z,0.71
2023-03-14T11:16:46.145Z,0.62
2023-03-14T11:20:46.174Z,0.56
2023-03-14T11:24:46.277Z,0.59
2023-03-14T11:28:46.495Z,0.72
2023-03-14T11:32:46.532Z,0.75
2023-03-14T11:36:46.612Z,0.90
2023-03-14T11:40:46.600Z,1.04
2023-03-14T11:44:46.352Z,1.45
2023-03-14T11:48:46.373Z,2.48
2023-03-14T11:52:46.281Z,2.83
2023-03-14T11:56:46.602Z,3.25
2023-03-14T12:00:46.216Z,3.77
2023-03-14T12:04:48.811Z,4.28
2023-03-14T12:08:46.129Z,5.53
2023-03-14T12:12:46.163Z,7.12
2023-03-14T12:16:46.110Z,7.86
2023-03-14T12:20:46.185Z,8.83
2023-03-14T12:24:45.992Z,9.44
2023-03-14T12:28:45.974Z,10.57
2023-03-14T12:32:46.188Z,11.10
2023-03-14T12:36:45.915Z,10.18
2023-03-14T12:40:46.122Z,9.14
2023-03-14T12:44:45.819Z,8.41
2023-03-14T12:48:46.126Z,7.68
2023-03-14T12:52:47.287Z,6.86
2023-03-14T12:56:45.710Z,6.34
2023-03-14T13:00:45.818Z,5.89
2023-03-14T13:04:46.017Z,5.58
2023-03-14T13:08:46.176Z,4.81
2023-03-14T13:12:45.913Z,4.56
2023-03-14T13:16:46.180Z,4.13
2023-03-14T13:20:45.961Z,3.98
2023-03-14T13:24:46.164Z,4.02
2023-03-14T13:28:45.942Z,3.89
2023-03-14T13:32:46.839Z,3.93
2023-03-14T13:36:45.961Z,3.77
2023-03-14T13:40:45.906Z,3.37
2023-03-14T13:44:45.909Z,3.54
2023-03-14T13:48:46.026Z,4.04
2023-03-14T13:52:45.931Z,3.77
2023-03-14T13:56:45.959Z,3.82
2023-03-14T14:00:46.027Z,4.04
2023-03-14T14:04:46.180Z,4.06
2023-03-14T14:08:46.191Z,3.88
2023-03-14T14:12:46.660Z,3.98
2023-03-14T14:16:46.644Z,3.74
2023-03-14T14:20:47.734Z,3.44
2023-03-14T14:24:46.632Z,3.33
2023-03-14T14:28:46.769Z,3.28
2023-03-14T14:32:47.027Z,3.10
2023-03-14T14:36:47.044Z,2.88
2023-03-14T14:40:47.201Z,2.69
2023-03-14T14:44:47.385Z,3.10
2023-03-14T14:48:47.540Z,2.96
2023-03-14T14:52:47.710Z,2.91
2023-03-14T14:56:48.185Z,2.86
2023-03-14T15:00:51.069Z,2.77
2023-03-14T15:04:48.079Z,2.69
2023-03-14T15:08:48.199Z,2.59
2023-03-14T15:12:48.178Z,2.43
2023-03-14T15:16:48.007Z,2.31
2023-03-14T15:20:47.940Z,2.27
2023-03-14T15:24:48.009Z,2.19
2023-03-14T15:28:47.904Z,2.15
2023-03-14T15:32:47.851Z,1.98
2023-03-14T15:36:47.825Z,1.96
2023-03-14T15:40:47.763Z,1.89
2023-03-14T15:44:47.788Z,1.81
2023-03-14T15:48:47.950Z,1.79
2023-03-14T15:52:48.175Z,1.82
2023-03-14T15:56:48.373Z,1.74
2023-03-14T16:00:48.586Z,1.73
2023-03-14T16:04:48.870Z,1.68
2023-03-14T16:08:48.983Z,1.65
2023-03-14T16:12:48.974Z,1.57
2023-03-14T16:16:48.945Z,1.57
2023-03-14T16:20:50.622Z,1.52
2023-03-14T16:24:48.859Z,1.53
2023-03-14T16:28:48.813Z,1.45
2023-03-14T16:32:48.819Z,1.40
2023-03-14T16:36:48.764Z,1.41
2023-03-14T16:40:48.695Z,1.39
2023-03-14T16:44:48.744Z,1.34
2023-03-14T16:48:48.654Z,1.31
2023-03-14T16:52:48.623Z,1.28
2023-03-14T16:56:48.551Z,1.24
2023-03-14T17:00:48.551Z,1.23
2023-03-14T17:04:48.723Z,1.18
2023-03-14T17:08:48.788Z,1.21
2023-03-14T17:12:48.803Z,1.16
2023-03-14T17:16:48.808Z,1.14
2023-03-14T17:20:48.768Z,1.10
2023-03-14T17:24:48.752Z,1.08
2023-03-14T17:28:48.739Z,1.04
2023-03-14T17:32:48.879Z,1.01
2023-03-14T17:36:48.689Z,1.00
2023-03-14T17:40:48.698Z,0.99
2023-03-14T17:44:48.648Z,0.95
2023-03-14T17:48:48.667Z,0.95
2023-03-14T17:52:48.643Z,0.93
2023-03-14T17:56:48.643Z,0.90
2023-03-14T18:00:48.625Z,0.88
2023-03-14T18:04:48.703Z,0.87
2023-03-14T18:08:48.678Z,0.83
2023-03-14T18:12:48.680Z,0.83
2023-03-14T18:16:48.632Z,0.80
2023-03-14T18:20:49.250Z,0.79
2023-03-14T18:24:48.756Z,0.77
2023-03-14T18:28:48.714Z,0.79
2023-03-14T18:32:48.749Z,0.74
2023-03-14T18:36:48.810Z,0.74
2023-03-14T18:40:48.796Z,0.72
2023-03-14T18:44:48.864Z,0.70
2023-03-14T18:48:48.893Z,0.70
2023-03-14T18:52:48.925Z,0.68
2023-03-14T18:56:48.927Z,0.67
2023-03-14T19:00:49.066Z,0.68
2023-03-14T19:04:49.013Z,0.64
2023-03-14T19:08:49.175Z,0.65
2023-03-14T19:12:49.125Z,0.63
2023-03-14T19:16:49.283Z,0.63
2023-03-14T19:20:49.224Z,0.62
2023-03-14T19:24:49.349Z,0.60
2023-03-14T19:28:49.363Z,0.60
2023-03-14T19:32:49.452Z,0.61
2023-03-14T19:36:49.454Z,0.60
2023-03-14T19:40:49.567Z,0.58
2023-03-14T19:44:49.628Z,0.57
2023-03-14T19:48:49.724Z,0.56
2023-03-14T19:52:49.806Z,0.55
2023-03-14T19:56:49.913Z,0.54
2023-03-14T20:00:50.145Z,0.54
2023-03-14T20:04:50.130Z,0.54
2023-03-14T20:08:50.278Z,0.53
2023-03-14T20:12:50.477Z,0.53
2023-03-14T20:16:50.549Z,0.53
2023-03-14T20:20:50.553Z,0.52
2023-03-14T20:24:50.712Z,0.51
2023-03-14T20:28:50.797Z,0.50
2023-03-14T20:32:51.088Z,0.51
2023-03-14T20:36:51.099Z,0.51
2023-03-14T20:40:51.237Z,0.51
2023-03-14T20:44:51.387Z,0.50
2023-03-14T20:48:51.455Z,0.51
2023-03-14T20:52:51.641Z,0.51
2023-03-14T20:56:51.701Z,0.51
2023-03-14T21:00:51.815Z,0.51
2023-03-14T21:04:52.000Z,0.51
2023-03-14T21:08:52.108Z,0.52
2023-03-14T21:12:52.284Z,0.50
2023-03-14T21:16:52.382Z,0.50
2023-03-14T21:20:52.528Z,0.50
2023-03-14T21:24:52.652Z,0.51
2023-03-14T21:28:52.844Z,0.51
2023-03-14T21:32:53.055Z,0.50
2023-03-14T21:36:53.135Z,0.51
2023-03-14T21:40:53.303Z,0.51
2023-03-14T21:44:53.457Z,0.51
2023-03-14T21:48:53.697Z,0.51
2023-03-14T21:52:53.805Z,0.51
2023-03-14T21:56:53.978Z,0.51
2023-03-14T22:00:54.200Z,0.52
2023-03-14T22:04:54.305Z,0.52
2023-03-14T22:08:54.518Z,0.51
2023-03-14T22:12:54.687Z,0.52
2023-03-14T22:16:54.844Z,0.52
2023-03-14T22:20:55.037Z,0.52
2023-03-14T22:24:55.210Z,0.52
2023-03-14T22:28:55.382Z,0.52
2023-03-14T22:32:55.591Z,0.52
2023-03-14T22:36:55.756Z,0.51
2023-03-14T22:40:55.934Z,0.51
2023-03-14T22:44:56.127Z,0.51
2023-03-14T22:48:56.341Z,0.51
2023-03-14T22:52:56.563Z,0.51
2023-03-14T22:56:56.730Z,0.50
2023-03-14T23:00:56.955Z,0.50
2023-03-14T23:04:57.140Z,0.51
2023-03-14T23:08:57.506Z,0.51
2023-03-14T23:12:57.937Z,0.51
2023-03-14T23:16:57.798Z,0.51
2023-03-14T23:20:57.962Z,0.51
2023-03-14T23:24:58.172Z,0.51
2023-03-14T23:28:58.367Z,0.51
2023-03-14T23:32:58.631Z,0.51
2023-03-14T23:36:58.770Z,0.51
2023-03-14T23:40:59.020Z,0.51
2023-03-14T23:44:59.220Z,0.51
2023-03-14T23:48:59.425Z,0.52
2023-03-14T23:52:59.612Z,0.51
2023-03-14T23:56:59.782Z,0.50
